METAR Reports

 

EHEH - Eindhoven Airport, Eindhoven, NL
Distance from station: W 30km
Updated: 18/02/2018 22:56
Mist, Few clouds
Mist, Few clouds
 Wind van ZZO
Wind: ZZO 6 km/h
Temperatuur: -1°C
Dauwpunt: -2°C
Vochtigheid: 93%
Barometer: 1023 hPa
Overzicht: Mist
Clouds: Few Clouds
Visibility: 5 km
Cloud details: Few Clouds 8534 m
2018/02/18 21:56 EHEH 182156Z AUTO 16003KT 110V250 5000 BR FEW280 M01/M02 Q1023 WHT VRB03KT 7000 BR NSC
EHVK - Volkel Airoprt, Volkel, NL
Distance from station: NO 30km
Updated: 18/02/2018 22:55
Mist, Helder
Mist, Helder
 Wind van ZZO
Wind: ZZO 4 km/h
Temperatuur: -1°C
Dauwpunt: -1°C
Vochtigheid: 100%
Barometer: 1023 hPa
Overzicht: Mist
Clouds: Helder
Visibility: 8 km
2018/02/18 21:55 EHVK 182155Z AUTO 16002KT 8000 BR NCD M01/M01 Q1023 BLU
 
EHGR - Gilze-Rijen Airport, Gilze-Rijen, NL
Distance from station: W 43km
Updated: 18/02/2018 22:55
Few Clouds
Few Clouds
 Wind van Z
Wind: Z 7 km/h
Temperatuur: 1°C
Wind Chill: -2°C
Dauwpunt: -1°C
Vochtigheid: 87%
Barometer: 1023 hPa
Clouds: Few Clouds
Visibility: 10 km
Cloud details: Few Clouds 7925 m
2018/02/18 21:55 EHGR 182155Z AUTO 17004KT 9999 FEW260 01/M01 Q1023 BLU
EHBK - Maastricht-Aken Airport, Beek, NL
Distance from station: ZZO 70km
Updated: 18/02/2018 22:55
Gedeeltelijk bewolkt
Gedeeltelijk bewolkt
 Wind van Z
Wind: Z 13 km/h
Temperatuur: 1°C
Wind Chill: -3°C
Dauwpunt: -3°C
Vochtigheid: 75%
Barometer: 1023 hPa
Clouds: Gedeeltelijk bewolkt
Visibility: 10 km
2018/02/18 21:55 EHBK 182155Z AUTO 18007KT 9999 NSC 01/M03 Q1023
 
EHAM - Schiphol, Amsterdam, NL
Distance from station: NNW 115km
Updated: 18/02/2018 22:55
Gedeeltelijk bewolkt
Gedeeltelijk bewolkt
 Wind van ZZO
Wind: ZZO 13 km/h
Temperatuur: 2°C
Wind Chill: -1°C
Dauwpunt: 0°C
Vochtigheid: 87%
Barometer: 1022 hPa
Clouds: Gedeeltelijk bewolkt
Visibility: 9 km
2018/02/18 21:55 EHAM 182155Z 16007KT 9000 NSC 02/M00 Q1022 NOSIG